createdAt,value
2019-01-25T00:00:08.000Z,29.1
2019-01-25T00:01:08.000Z,29.1
2019-01-25T00:03:08.000Z,29.1
2019-01-25T00:05:08.000Z,29.1
2019-01-25T00:06:08.000Z,29.1
2019-01-25T00:08:08.000Z,29.1
2019-01-25T00:09:08.000Z,29.1
2019-01-25T00:11:07.000Z,29.1
2019-01-25T00:12:07.000Z,29
2019-01-25T00:14:07.000Z,29.1
2019-01-25T00:16:07.000Z,29
2019-01-25T00:17:07.000Z,29.1
2019-01-25T00:19:07.000Z,29.1
2019-01-25T00:21:07.000Z,29.1
2019-01-25T00:22:07.000Z,29.1
2019-01-25T00:23:52.000Z,29.1
2019-01-25T00:25:07.000Z,29.1
2019-01-25T00:26:07.000Z,29.1
2019-01-25T00:27:07.000Z,29.1
2019-01-25T00:28:07.000Z,29.1
2019-01-25T00:29:07.000Z,29.1
2019-01-25T00:30:52.000Z,29
2019-01-25T00:32:07.000Z,29
2019-01-25T00:33:07.000Z,29
2019-01-25T00:34:07.000Z,29.1
2019-01-25T00:36:07.000Z,29
2019-01-25T00:38:07.000Z,29
2019-01-25T00:40:07.000Z,29
2019-01-25T00:42:07.000Z,29
2019-01-25T00:43:07.000Z,29
2019-01-25T00:45:07.000Z,29
2019-01-25T00:47:07.000Z,29
2019-01-25T00:48:07.000Z,29
2019-01-25T00:49:07.000Z,29
2019-01-25T00:51:07.000Z,29
2019-01-25T00:53:07.000Z,29
2019-01-25T00:55:07.000Z,29
2019-01-25T00:56:07.000Z,29
2019-01-25T00:57:07.000Z,29
2019-01-25T00:58:07.000Z,29
2019-01-25T00:59:07.000Z,29
2019-01-25T01:01:07.000Z,29
2019-01-25T01:02:07.000Z,29
2019-01-25T01:03:07.000Z,29
2019-01-25T01:05:07.000Z,29
2019-01-25T01:06:07.000Z,29
2019-01-25T01:07:07.000Z,29
2019-01-25T01:09:07.000Z,29
2019-01-25T01:11:07.000Z,29
2019-01-25T01:13:07.000Z,28.9
2019-01-25T01:14:52.000Z,28.9
2019-01-25T01:16:08.000Z,28.9
2019-01-25T01:18:08.000Z,28.9
2019-01-25T01:20:08.000Z,29
2019-01-25T01:22:08.000Z,28.9
2019-01-25T01:24:08.000Z,28.9
2019-01-25T01:25:08.000Z,28.9
2019-01-25T01:27:08.000Z,28.9
2019-01-25T01:29:08.000Z,28.9
2019-01-25T01:30:08.000Z,28.9
2019-01-25T01:32:08.000Z,28.9
2019-01-25T01:33:08.000Z,28.9
2019-01-25T01:34:08.000Z,28.9
2019-01-25T01:36:08.000Z,28.9
2019-01-25T01:38:08.000Z,28.9
2019-01-25T01:39:08.000Z,28.9
2019-01-25T01:41:08.000Z,28.9
2019-01-25T01:43:08.000Z,28.9
2019-01-25T01:44:08.000Z,28.9
2019-01-25T01:46:08.000Z,28.9
2019-01-25T01:48:08.000Z,28.9
2019-01-25T01:50:08.000Z,28.9
2019-01-25T01:51:08.000Z,28.9
2019-01-25T01:53:08.000Z,28.9
2019-01-25T01:54:53.000Z,28.9
2019-01-25T01:56:08.000Z,28.9
2019-01-25T01:58:08.000Z,28.9
2019-01-25T02:00:08.000Z,28.9
2019-01-25T02:01:08.000Z,28.9
2019-01-25T02:02:08.000Z,28.9
2019-01-25T02:04:08.000Z,28.9
2019-01-25T02:05:08.000Z,28.9
2019-01-25T02:06:08.000Z,28.9
2019-01-25T02:08:08.000Z,28.9
2019-01-25T02:10:08.000Z,28.9
2019-01-25T02:12:08.000Z,28.9
2019-01-25T02:13:08.000Z,28.9
2019-01-25T02:15:08.000Z,28.9
2019-01-25T02:17:08.000Z,28.9
2019-01-25T02:18:08.000Z,28.9
2019-01-25T02:20:08.000Z,28.9
2019-01-25T02:21:08.000Z,28.9
2019-01-25T02:22:08.000Z,28.9
2019-01-25T02:23:08.000Z,28.9
2019-01-25T02:25:08.000Z,28.9
2019-01-25T02:27:08.000Z,28.9
2019-01-25T02:28:08.000Z,28.8
2019-01-25T02:30:08.000Z,28.9
2019-01-25T02:32:08.000Z,28.9
2019-01-25T02:34:08.000Z,28.9
2019-01-25T02:36:08.000Z,28.8
2019-01-25T02:38:08.000Z,28.8
2019-01-25T02:39:08.000Z,28.8
2019-01-25T02:41:08.000Z,28.8
2019-01-25T02:42:08.000Z,28.8
2019-01-25T02:43:08.000Z,28.8
2019-01-25T02:45:08.000Z,28.8
2019-01-25T02:46:08.000Z,28.8
2019-01-25T02:48:08.000Z,28.8
2019-01-25T02:50:08.000Z,28.8
2019-01-25T02:52:08.000Z,28.8
2019-01-25T02:53:08.000Z,28.8
2019-01-25T02:55:08.000Z,28.8
2019-01-25T02:57:08.000Z,28.8
2019-01-25T02:58:08.000Z,28.8
2019-01-25T03:00:08.000Z,28.8
2019-01-25T03:01:08.000Z,28.8
2019-01-25T03:02:08.000Z,28.8
2019-01-25T03:04:08.000Z,28.8
2019-01-25T03:06:08.000Z,28.8
2019-01-25T03:08:08.000Z,28.8
2019-01-25T03:10:08.000Z,28.7
2019-01-25T03:12:08.000Z,28.7
2019-01-25T03:13:08.000Z,28.7
2019-01-25T03:15:08.000Z,28.7
2019-01-25T03:16:08.000Z,28.7
2019-01-25T03:17:08.000Z,28.7
2019-01-25T03:18:53.000Z,28.7
2019-01-25T03:20:08.000Z,28.7
2019-01-25T03:21:08.000Z,28.7
2019-01-25T03:23:08.000Z,28.7
2019-01-25T03:24:08.000Z,28.7
2019-01-25T03:26:08.000Z,28.7
2019-01-25T03:27:08.000Z,28.7
2019-01-25T03:29:08.000Z,28.7
2019-01-25T03:30:08.000Z,28.7
2019-01-25T03:32:08.000Z,28.7
2019-01-25T03:34:08.000Z,28.7
2019-01-25T03:35:08.000Z,28.7
2019-01-25T03:37:08.000Z,28.7
2019-01-25T03:39:08.000Z,28.7
2019-01-25T03:40:53.000Z,28.7
2019-01-25T03:42:08.000Z,28.7
2019-01-25T03:43:08.000Z,28.7
2019-01-25T03:44:08.000Z,28.7
2019-01-25T03:45:53.000Z,28.7
2019-01-25T03:47:08.000Z,28.7
2019-01-25T03:49:08.000Z,28.7
2019-01-25T03:50:08.000Z,28.7
2019-01-25T03:52:08.000Z,28.7
2019-01-25T03:53:08.000Z,28.7
2019-01-25T03:55:08.000Z,28.7
2019-01-25T03:56:08.000Z,28.7
2019-01-25T03:58:08.000Z,28.7
2019-01-25T04:00:08.000Z,28.7
2019-01-25T04:02:08.000Z,28.7
2019-01-25T04:04:08.000Z,28.7
2019-01-25T04:06:08.000Z,28.7
2019-01-25T04:07:08.000Z,28.7
2019-01-25T04:08:08.000Z,28.7
2019-01-25T04:10:08.000Z,28.6
2019-01-25T04:11:08.000Z,28.6
2019-01-25T04:12:08.000Z,28.6
2019-01-25T04:14:08.000Z,28.6
2019-01-25T04:16:08.000Z,28.6
2019-01-25T04:18:08.000Z,28.7
2019-01-25T04:20:08.000Z,28.7
2019-01-25T04:22:08.000Z,28.7
2019-01-25T04:23:08.000Z,28.7
2019-01-25T04:24:08.000Z,28.7
2019-01-25T04:26:08.000Z,28.6
2019-01-25T04:28:08.000Z,28.6
2019-01-25T04:29:53.000Z,28.6
2019-01-25T04:31:08.000Z,28.6
2019-01-25T04:32:08.000Z,28.6
2019-01-25T04:34:08.000Z,28.6
2019-01-25T04:36:08.000Z,28.6
2019-01-25T04:37:08.000Z,28.6
2019-01-25T04:38:08.000Z,28.6
2019-01-25T04:40:08.000Z,28.6
2019-01-25T04:41:08.000Z,28.6
2019-01-25T04:43:08.000Z,28.6
2019-01-25T04:45:08.000Z,28.6
2019-01-25T04:47:08.000Z,28.6
2019-01-25T04:49:08.000Z,28.6
2019-01-25T04:50:08.000Z,28.6
2019-01-25T04:52:08.000Z,28.6
2019-01-25T04:53:08.000Z,28.6
2019-01-25T04:55:08.000Z,28.6
2019-01-25T04:56:08.000Z,28.6
2019-01-25T04:57:08.000Z,28.6
2019-01-25T04:59:08.000Z,28.6
2019-01-25T05:01:08.000Z,28.6
2019-01-25T05:02:08.000Z,28.6
2019-01-25T05:03:08.000Z,28.6
2019-01-25T05:05:08.000Z,28.6
2019-01-25T05:06:08.000Z,28.6
2019-01-25T05:07:08.000Z,28.6
2019-01-25T05:09:08.000Z,28.6
2019-01-25T05:10:08.000Z,28.6
2019-01-25T05:11:08.000Z,28.6
2019-01-25T05:13:08.000Z,28.6
2019-01-25T05:15:08.000Z,28.6
2019-01-25T05:17:08.000Z,28.6
2019-01-25T05:19:08.000Z,28.6
2019-01-25T05:20:53.000Z,28.6
2019-01-25T05:22:08.000Z,28.5
2019-01-25T05:24:08.000Z,28.5
2019-01-25T05:25:08.000Z,28.5
2019-01-25T05:27:08.000Z,28.5
2019-01-25T05:29:08.000Z,28.5
2019-01-25T05:31:08.000Z,28.5
2019-01-25T05:32:08.000Z,28.5
2019-01-25T05:34:08.000Z,28.6
2019-01-25T05:35:08.000Z,28.6
2019-01-25T05:36:08.000Z,28.6
2019-01-25T05:37:08.000Z,28.6
2019-01-25T05:39:08.000Z,28.6
2019-01-25T05:40:08.000Z,28.6
2019-01-25T05:42:08.000Z,28.7
2019-01-25T05:43:08.000Z,28.7
2019-01-25T05:45:08.000Z,28.7
2019-01-25T05:47:08.000Z,28.8
2019-01-25T05:48:08.000Z,28.8
2019-01-25T05:49:53.000Z,28.8
2019-01-25T05:51:08.000Z,28.8
2019-01-25T05:53:08.000Z,28.9
2019-01-25T05:54:08.000Z,28.9
2019-01-25T05:55:08.000Z,28.9
2019-01-25T05:57:08.000Z,28.9
2019-01-25T05:58:53.000Z,29
2019-01-25T06:00:08.000Z,29
2019-01-25T06:02:08.000Z,29
2019-01-25T06:04:08.000Z,29
2019-01-25T06:05:08.000Z,29.1
2019-01-25T06:06:08.000Z,29.1
2019-01-25T06:07:08.000Z,29.1
2019-01-25T06:09:08.000Z,29.1
2019-01-25T06:10:08.000Z,29.1
2019-01-25T06:12:08.000Z,29.2
2019-01-25T06:14:08.000Z,29.2
2019-01-25T06:15:53.000Z,29.2
2019-01-25T06:17:08.000Z,29.2
2019-01-25T06:18:08.000Z,29.2
2019-01-25T06:19:08.000Z,29.3
2019-01-25T06:20:08.000Z,29.3
2019-01-25T06:21:53.000Z,29.3
2019-01-25T06:23:08.000Z,29.3
2019-01-25T06:24:08.000Z,29.3
2019-01-25T06:26:08.000Z,29.3
2019-01-25T06:27:08.000Z,29.4
2019-01-25T06:29:08.000Z,29.4
2019-01-25T06:30:08.000Z,29.4
2019-01-25T06:32:08.000Z,29.4
2019-01-25T06:33:08.000Z,29.4
2019-01-25T06:34:08.000Z,29.4
2019-01-25T06:36:08.000Z,29.5
2019-01-25T06:38:08.000Z,29.5
2019-01-25T06:40:08.000Z,29.5
2019-01-25T06:42:08.000Z,29.5
2019-01-25T06:44:08.000Z,29.5
2019-01-25T06:46:08.000Z,29.5
2019-01-25T06:48:08.000Z,29.5
2019-01-25T06:49:08.000Z,29.5
2019-01-25T06:50:08.000Z,29.5
2019-01-25T06:51:08.000Z,29.5
2019-01-25T06:53:08.000Z,29.5
2019-01-25T06:54:08.000Z,29.5
2019-01-25T06:55:08.000Z,29.5
2019-01-25T06:57:08.000Z,29.5
2019-01-25T06:58:08.000Z,29.5
2019-01-25T07:00:08.000Z,29.5
2019-01-25T07:01:08.000Z,29.5
2019-01-25T07:02:08.000Z,29.5
2019-01-25T07:04:08.000Z,29.5
2019-01-25T07:05:08.000Z,29.5
2019-01-25T07:06:08.000Z,29.5
2019-01-25T07:08:08.000Z,29.5
2019-01-25T07:09:08.000Z,29.5
2019-01-25T07:10:08.000Z,29.5
2019-01-25T07:12:08.000Z,29.5
2019-01-25T07:14:08.000Z,29.5
2019-01-25T07:16:08.000Z,29.5
2019-01-25T07:18:08.000Z,29.5
2019-01-25T07:19:08.000Z,29.5
2019-01-25T07:20:08.000Z,29.5
2019-01-25T07:22:08.000Z,29.5
2019-01-25T07:23:53.000Z,29.5
2019-01-25T07:24:53.000Z,29.5
2019-01-25T07:26:08.000Z,29.5
2019-01-25T07:27:08.000Z,29.5
2019-01-25T07:29:08.000Z,29.6
2019-01-25T07:31:08.000Z,29.6
2019-01-25T07:32:08.000Z,29.6
2019-01-25T07:34:08.000Z,29.6
2019-01-25T07:36:08.000Z,29.7
2019-01-25T07:37:08.000Z,29.7
2019-01-25T07:39:08.000Z,29.7
2019-01-25T07:40:08.000Z,29.7
2019-01-25T07:41:53.000Z,29.7
2019-01-25T07:43:08.000Z,29.7
2019-01-25T07:44:08.000Z,29.7
2019-01-25T07:46:08.000Z,29.7
2019-01-25T07:48:08.000Z,29.8
2019-01-25T07:49:08.000Z,29.8
2019-01-25T07:51:08.000Z,29.8
2019-01-25T07:53:08.000Z,29.9
2019-01-25T07:55:08.000Z,29.9
2019-01-25T07:56:53.000Z,29.9
2019-01-25T07:58:08.000Z,29.9
2019-01-25T07:59:52.000Z,29.9
2019-01-25T08:01:08.000Z,29.9
2019-01-25T08:02:08.000Z,29.9
2019-01-25T08:04:08.000Z,30
2019-01-25T08:05:08.000Z,30
2019-01-25T08:07:08.000Z,29.9
2019-01-25T08:09:08.000Z,29.8
2019-01-25T08:10:53.000Z,29.8
2019-01-25T08:13:08.000Z,29.8
2019-01-25T08:15:08.000Z,29.8
2019-01-25T08:17:08.000Z,29.8
2019-01-25T08:19:08.000Z,29.9
2019-01-25T08:20:08.000Z,29.9
2019-01-25T08:21:08.000Z,29.9
2019-01-25T08:23:08.000Z,29.9
2019-01-25T08:25:08.000Z,30
2019-01-25T08:26:08.000Z,30
2019-01-25T08:27:53.000Z,30
2019-01-25T08:30:08.000Z,29.1
2019-01-25T08:31:08.000Z,28.5
2019-01-25T08:33:08.000Z,27.1
2019-01-25T08:35:08.000Z,26
2019-01-25T08:37:08.000Z,25.1
2019-01-25T08:39:08.000Z,24.5
2019-01-25T08:40:53.000Z,24.2
2019-01-25T08:42:08.000Z,23.9
2019-01-25T08:44:08.000Z,24.1
2019-01-25T08:46:08.000Z,24.7
2019-01-25T08:47:08.000Z,25.1
2019-01-25T08:49:08.000Z,25.7
2019-01-25T08:51:08.000Z,26.2
2019-01-25T08:52:08.000Z,26.5
2019-01-25T08:54:08.000Z,26.9
2019-01-25T08:56:08.000Z,27.3
2019-01-25T08:57:08.000Z,27.5
2019-01-25T08:59:08.000Z,27.7
2019-01-25T09:01:08.000Z,28
2019-01-25T09:02:08.000Z,28
2019-01-25T09:04:08.000Z,28.2
2019-01-25T09:06:08.000Z,28.4
2019-01-25T09:08:08.000Z,28.5
2019-01-25T09:10:08.000Z,28.6
2019-01-25T09:12:08.000Z,28.8
2019-01-25T09:14:08.000Z,28.9
2019-01-25T09:16:08.000Z,29
2019-01-25T09:17:08.000Z,29
2019-01-25T09:19:08.000Z,29.1
2019-01-25T09:20:08.000Z,29.1
2019-01-25T09:21:53.000Z,29.2
2019-01-25T09:23:08.000Z,29.2
2019-01-25T09:25:08.000Z,29.3
2019-01-25T09:27:08.000Z,29.4
2019-01-25T09:28:08.000Z,29.4
2019-01-25T09:30:08.000Z,29.5
2019-01-25T09:31:08.000Z,29.5
2019-01-25T09:32:08.000Z,29.5
2019-01-25T09:34:08.000Z,29.6
2019-01-25T09:35:08.000Z,29.6
2019-01-25T09:37:08.000Z,29.7
2019-01-25T09:38:08.000Z,29.7
2019-01-25T09:39:08.000Z,29.7
2019-01-25T09:41:08.000Z,29.8
2019-01-25T09:42:08.000Z,29.8
2019-01-25T09:44:08.000Z,29.9
2019-01-25T09:45:08.000Z,29.9
2019-01-25T09:46:08.000Z,29.9
2019-01-25T09:47:08.000Z,29.9
2019-01-25T09:49:08.000Z,29.9
2019-01-25T09:51:08.000Z,29.9
2019-01-25T09:52:53.000Z,30
2019-01-25T09:54:08.000Z,29.9
2019-01-25T09:56:08.000Z,30
2019-01-25T09:57:08.000Z,30
2019-01-25T09:58:08.000Z,30
2019-01-25T10:00:08.000Z,30
2019-01-25T10:01:08.000Z,30.1
2019-01-25T10:03:08.000Z,30.1
2019-01-25T10:04:08.000Z,30.1
2019-01-25T10:06:08.000Z,30.1
2019-01-25T10:07:08.000Z,30.1
2019-01-25T10:08:08.000Z,30.1
2019-01-25T10:10:08.000Z,30.1
2019-01-25T10:12:08.000Z,30.1
2019-01-25T10:13:08.000Z,30.1
2019-01-25T10:14:08.000Z,30.1
2019-01-25T10:16:08.000Z,30.1
2019-01-25T10:17:08.000Z,29.8
2019-01-25T10:19:08.000Z,28.5
2019-01-25T10:20:08.000Z,27.9
2019-01-25T10:21:08.000Z,27.4
2019-01-25T10:23:08.000Z,26.8
2019-01-25T10:24:08.000Z,26.8
2019-01-25T10:26:08.000Z,27.1
2019-01-25T10:27:08.000Z,27.3
2019-01-25T10:29:08.000Z,27.6
2019-01-25T10:31:08.000Z,27.9
2019-01-25T10:33:08.000Z,28.2
2019-01-25T10:35:08.000Z,28.4
2019-01-25T10:36:08.000Z,28.5
2019-01-25T10:38:08.000Z,28.7
2019-01-25T10:40:08.000Z,28.9
2019-01-25T10:41:08.000Z,29
2019-01-25T10:42:53.000Z,29.1
2019-01-25T10:44:08.000Z,29.1
2019-01-25T10:45:53.000Z,29.2
2019-01-25T10:47:08.000Z,29.3
2019-01-25T10:49:08.000Z,29.4
2019-01-25T10:50:08.000Z,29.4
2019-01-25T10:52:08.000Z,29.5
2019-01-25T10:54:08.000Z,29.5
2019-01-25T10:55:08.000Z,29.6
2019-01-25T10:57:08.000Z,29.6
2019-01-25T10:58:08.000Z,29.6
2019-01-25T10:59:08.000Z,29.7
2019-01-25T11:00:08.000Z,29.7
2019-01-25T11:02:08.000Z,29.8
2019-01-25T11:04:08.000Z,29.8
2019-01-25T11:05:08.000Z,29.8
2019-01-25T11:06:08.000Z,29.8
2019-01-25T11:08:08.000Z,29.8
2019-01-25T11:09:08.000Z,29.8
2019-01-25T11:10:08.000Z,29.9
2019-01-25T11:12:08.000Z,29.9
2019-01-25T11:14:08.000Z,29.9
2019-01-25T11:15:08.000Z,29.9
2019-01-25T11:16:08.000Z,29.9
2019-01-25T11:18:08.000Z,29.9
2019-01-25T11:20:08.000Z,30
2019-01-25T11:21:08.000Z,30
2019-01-25T11:23:08.000Z,30
2019-01-25T11:25:08.000Z,30
2019-01-25T11:27:08.000Z,30
2019-01-25T11:28:08.000Z,30
2019-01-25T11:30:08.000Z,30.1
2019-01-25T11:31:08.000Z,30.1
2019-01-25T11:33:08.000Z,30.1
2019-01-25T11:34:08.000Z,30.1
2019-01-25T11:35:53.000Z,30.2
2019-01-25T11:37:08.000Z,30.2
2019-01-25T11:38:08.000Z,30.2
2019-01-25T11:39:08.000Z,30.2
2019-01-25T11:41:08.000Z,30.3
2019-01-25T11:43:08.000Z,30.3
2019-01-25T11:45:08.000Z,30.3
2019-01-25T11:47:08.000Z,30.3
2019-01-25T11:48:08.000Z,30.3
2019-01-25T11:49:08.000Z,30.4
2019-01-25T11:50:53.000Z,30.4
2019-01-25T11:52:08.000Z,30.4
2019-01-25T11:54:08.000Z,30.4
2019-01-25T11:55:08.000Z,30.4
2019-01-25T11:56:53.000Z,30.4
2019-01-25T11:58:08.000Z,30.4
2019-01-25T12:00:08.000Z,30.4
2019-01-25T12:01:08.000Z,30.4
2019-01-25T12:03:08.000Z,30.3
2019-01-25T12:05:08.000Z,30.3
2019-01-25T12:07:08.000Z,30.3
2019-01-25T12:09:08.000Z,30.3
2019-01-25T12:11:08.000Z,30.3
2019-01-25T12:12:08.000Z,30.3
2019-01-25T12:13:08.000Z,30.3
2019-01-25T12:15:08.000Z,30.3
2019-01-25T12:16:08.000Z,30.3
2019-01-25T12:18:08.000Z,30.4
2019-01-25T12:20:08.000Z,30.4
2019-01-25T12:21:08.000Z,30.3
2019-01-25T12:23:08.000Z,30.3
2019-01-25T12:24:08.000Z,30.2
2019-01-25T12:26:08.000Z,30.2
2019-01-25T12:28:08.000Z,30.2
2019-01-25T12:29:08.000Z,30.1
2019-01-25T12:30:52.000Z,30.1
2019-01-25T12:32:08.000Z,30
2019-01-25T12:34:08.000Z,30
2019-01-25T12:36:08.000Z,30
2019-01-25T12:37:52.000Z,30
2019-01-25T12:39:08.000Z,30
2019-01-25T12:41:08.000Z,30.1
2019-01-25T12:42:08.000Z,30.1
2019-01-25T12:43:08.000Z,30.1
2019-01-25T12:45:08.000Z,30.2
2019-01-25T12:47:08.000Z,30.2
2019-01-25T12:49:08.000Z,30.2
2019-01-25T12:51:08.000Z,30.3
2019-01-25T12:52:08.000Z,30.3
2019-01-25T12:54:08.000Z,30.3
2019-01-25T12:55:08.000Z,30.3
2019-01-25T12:56:52.000Z,30.3
2019-01-25T12:58:08.000Z,30.3
2019-01-25T13:00:08.000Z,30.2
2019-01-25T13:02:08.000Z,30.2
2019-01-25T13:04:08.000Z,30.2
2019-01-25T13:05:08.000Z,30.3
2019-01-25T13:06:08.000Z,30.3
2019-01-25T13:08:08.000Z,30.3
2019-01-25T13:10:08.000Z,30.3
2019-01-25T13:11:08.000Z,30.3
2019-01-25T13:12:08.000Z,30.3
2019-01-25T13:13:53.000Z,30.3
2019-01-25T13:15:08.000Z,30.3
2019-01-25T13:16:08.000Z,30.3
2019-01-25T13:18:08.000Z,30.3
2019-01-25T13:20:08.000Z,30.4
2019-01-25T13:21:08.000Z,30.4
2019-01-25T13:23:08.000Z,30.4
2019-01-25T13:24:08.000Z,30.4
2019-01-25T13:26:08.000Z,30.4
2019-01-25T13:27:08.000Z,30.4
2019-01-25T13:28:53.000Z,30.4
2019-01-25T13:29:53.000Z,30.3
2019-01-25T13:31:08.000Z,30.3
2019-01-25T13:33:08.000Z,30.3
2019-01-25T13:35:08.000Z,30.3
2019-01-25T13:36:53.000Z,30.3
2019-01-25T13:38:08.000Z,30.2
2019-01-25T13:39:08.000Z,30.2
2019-01-25T13:41:08.000Z,30.2
2019-01-25T13:42:53.000Z,30.2
2019-01-25T13:44:08.000Z,30.2
2019-01-25T13:46:08.000Z,30.2
2019-01-25T13:47:08.000Z,30.2
2019-01-25T13:49:08.000Z,30.2
2019-01-25T13:50:08.000Z,30.3
2019-01-25T13:52:08.000Z,30.3
2019-01-25T13:53:08.000Z,30.3
2019-01-25T13:55:08.000Z,30.3
2019-01-25T13:56:08.000Z,30.3
2019-01-25T13:58:08.000Z,30.3
2019-01-25T13:59:08.000Z,30.3
2019-01-25T14:01:08.000Z,30.3
2019-01-25T14:03:08.000Z,30.3
2019-01-25T14:05:08.000Z,30.3
2019-01-25T14:07:08.000Z,30.2
2019-01-25T14:08:08.000Z,30.2
2019-01-25T14:10:08.000Z,30.2
2019-01-25T14:12:08.000Z,30.2
2019-01-25T14:13:08.000Z,30.2
2019-01-25T14:14:08.000Z,30.2
2019-01-25T14:16:08.000Z,30.2
2019-01-25T14:18:08.000Z,30.2
2019-01-25T14:19:08.000Z,30.2
2019-01-25T14:20:08.000Z,30.2
2019-01-25T14:22:08.000Z,30.2
2019-01-25T14:24:08.000Z,30.2
2019-01-25T14:25:52.000Z,30.2
2019-01-25T14:27:08.000Z,30.2
2019-01-25T14:28:08.000Z,30.2
2019-01-25T14:30:08.000Z,30.3
2019-01-25T14:31:08.000Z,30.3
2019-01-25T14:32:08.000Z,30.3
2019-01-25T14:33:08.000Z,30.3
2019-01-25T14:35:08.000Z,30.3
2019-01-25T14:36:08.000Z,30.3
2019-01-25T14:37:08.000Z,30.3
2019-01-25T14:38:08.000Z,30.3
2019-01-25T14:39:52.000Z,30.3
2019-01-25T14:41:08.000Z,30.3
2019-01-25T14:43:08.000Z,30.3
2019-01-25T14:44:52.000Z,30.3
2019-01-25T14:46:08.000Z,30.3
2019-01-25T14:48:08.000Z,30.4
2019-01-25T14:50:08.000Z,30.4
2019-01-25T14:52:08.000Z,30.4
2019-01-25T14:53:08.000Z,30.4
2019-01-25T14:54:08.000Z,30.5
2019-01-25T14:56:08.000Z,30.4
2019-01-25T14:57:08.000Z,30.4
2019-01-25T14:59:08.000Z,30.4
2019-01-25T15:01:08.000Z,30.4
2019-01-25T15:03:08.000Z,30.3
2019-01-25T15:05:08.000Z,30.3
2019-01-25T15:07:08.000Z,30.3
2019-01-25T15:08:08.000Z,30.2
2019-01-25T15:10:08.000Z,30.2
2019-01-25T15:11:08.000Z,30.2
2019-01-25T15:12:08.000Z,30.1
2019-01-25T15:13:08.000Z,30.1
2019-01-25T15:15:08.000Z,30
2019-01-25T15:16:08.000Z,30
2019-01-25T15:18:08.000Z,30
2019-01-25T15:20:08.000Z,29.9
2019-01-25T15:21:08.000Z,29.9
2019-01-25T15:23:08.000Z,29.9
2019-01-25T15:24:08.000Z,29.9
2019-01-25T15:25:08.000Z,29.9
2019-01-25T15:26:53.000Z,29.9
2019-01-25T15:28:08.000Z,29.8
2019-01-25T15:29:53.000Z,29.8
2019-01-25T15:31:08.000Z,29.8
2019-01-25T15:33:08.000Z,29.8
2019-01-25T15:34:08.000Z,29.8
2019-01-25T15:35:08.000Z,29.8
2019-01-25T15:36:08.000Z,29.8
2019-01-25T15:38:08.000Z,29.7
2019-01-25T15:40:08.000Z,29.7
2019-01-25T15:41:08.000Z,29.7
2019-01-25T15:42:08.000Z,29.7
2019-01-25T15:44:08.000Z,29.7
2019-01-25T15:46:08.000Z,29.7
2019-01-25T15:48:08.000Z,29.7
2019-01-25T15:50:08.000Z,29.6
2019-01-25T15:52:08.000Z,29.6
2019-01-25T15:53:08.000Z,29.6
2019-01-25T15:55:08.000Z,29.6
2019-01-25T15:57:08.000Z,29.6
2019-01-25T15:58:08.000Z,29.6
2019-01-25T15:59:08.000Z,29.6
2019-01-25T16:00:08.000Z,29.5
2019-01-25T16:02:08.000Z,29.5
2019-01-25T16:03:08.000Z,29.5
2019-01-25T16:05:08.000Z,29.5
2019-01-25T16:06:08.000Z,29.5
2019-01-25T16:07:08.000Z,29.5
2019-01-25T16:09:08.000Z,29.5
2019-01-25T16:11:08.000Z,29.5
2019-01-25T16:13:08.000Z,29.5
2019-01-25T16:14:08.000Z,29.5
2019-01-25T16:15:08.000Z,29.5
2019-01-25T16:17:08.000Z,29.5
2019-01-25T16:19:08.000Z,29.5
2019-01-25T16:20:08.000Z,29.5
2019-01-25T16:21:08.000Z,29.5
2019-01-25T16:23:08.000Z,29.5
2019-01-25T16:24:08.000Z,29.5
2019-01-25T16:26:08.000Z,29.5
2019-01-25T16:27:08.000Z,29.4
2019-01-25T16:28:08.000Z,29.4
2019-01-25T16:30:08.000Z,29.4
2019-01-25T16:31:08.000Z,29.4
2019-01-25T16:32:08.000Z,29.4
2019-01-25T16:34:08.000Z,29.4
2019-01-25T16:36:08.000Z,29.4
2019-01-25T16:38:08.000Z,29.4
2019-01-25T16:40:08.000Z,29.4
2019-01-25T16:41:08.000Z,29.4
2019-01-25T16:42:08.000Z,29.4
2019-01-25T16:44:08.000Z,29.4
2019-01-25T16:46:08.000Z,29.4
2019-01-25T16:48:08.000Z,29.4
2019-01-25T16:50:08.000Z,29.4
2019-01-25T16:52:08.000Z,29.3
2019-01-25T16:54:08.000Z,29.3
2019-01-25T16:56:08.000Z,29.3
2019-01-25T16:57:08.000Z,29.3
2019-01-25T16:59:08.000Z,29.3
2019-01-25T17:01:08.000Z,29.3
2019-01-25T17:02:08.000Z,29.3
2019-01-25T17:03:08.000Z,29.3
2019-01-25T17:05:08.000Z,29.3
2019-01-25T17:06:08.000Z,29.3
2019-01-25T17:07:08.000Z,29.3
2019-01-25T17:09:08.000Z,29.3
2019-01-25T17:10:52.000Z,29.3
2019-01-25T17:12:08.000Z,29.3
2019-01-25T17:14:08.000Z,29.3
2019-01-25T17:15:53.000Z,29.3
2019-01-25T17:17:07.000Z,29.3
2019-01-25T17:18:08.000Z,29.3
2019-01-25T17:19:08.000Z,29.3
2019-01-25T17:21:08.000Z,29.3
2019-01-25T17:22:53.000Z,29.3
2019-01-25T17:24:08.000Z,29.3
2019-01-25T17:25:08.000Z,29.3
2019-01-25T17:27:08.000Z,29.3
2019-01-25T17:29:08.000Z,29.2
2019-01-25T17:30:08.000Z,29.2
2019-01-25T17:32:08.000Z,29.2
2019-01-25T17:33:08.000Z,29.2
2019-01-25T17:35:08.000Z,29.2
2019-01-25T17:36:08.000Z,29.2
2019-01-25T17:37:08.000Z,29.2
2019-01-25T17:39:08.000Z,29.2
2019-01-25T17:40:08.000Z,29.2
2019-01-25T17:42:08.000Z,29.2
2019-01-25T17:44:08.000Z,29.2
2019-01-25T17:46:08.000Z,29.2
2019-01-25T17:48:08.000Z,29.2
2019-01-25T17:50:08.000Z,29.2
2019-01-25T17:51:53.000Z,29.2
2019-01-25T17:53:08.000Z,29.2
2019-01-25T17:54:08.000Z,29.2
2019-01-25T17:55:08.000Z,29.2
2019-01-25T17:57:08.000Z,29.2
2019-01-25T17:58:08.000Z,29.2
2019-01-25T18:00:08.000Z,29.2
2019-01-25T18:02:08.000Z,29.2
2019-01-25T18:03:08.000Z,29.2
2019-01-25T18:05:08.000Z,29.2
2019-01-25T18:07:08.000Z,29.2
2019-01-25T18:09:08.000Z,29.2
2019-01-25T18:11:08.000Z,29.2
2019-01-25T18:13:08.000Z,29.2
2019-01-25T18:14:08.000Z,29.2
2019-01-25T18:16:08.000Z,29.2
2019-01-25T18:18:08.000Z,29.2
2019-01-25T18:20:08.000Z,29.2
2019-01-25T18:22:08.000Z,29.1
2019-01-25T18:23:08.000Z,29.1
2019-01-25T18:25:08.000Z,29.1
2019-01-25T18:27:08.000Z,29.1
2019-01-25T18:29:08.000Z,29.1
2019-01-25T18:30:08.000Z,29.1
2019-01-25T18:31:08.000Z,29.1
2019-01-25T18:32:08.000Z,29.1
2019-01-25T18:34:08.000Z,29.1
2019-01-25T18:36:08.000Z,29.1
2019-01-25T18:37:08.000Z,29.1
2019-01-25T18:39:08.000Z,29.1
2019-01-25T18:40:08.000Z,29.1
2019-01-25T18:41:08.000Z,29.1
2019-01-25T18:43:08.000Z,29.1
2019-01-25T18:44:08.000Z,29.1
2019-01-25T18:46:08.000Z,29.1
2019-01-25T18:47:08.000Z,29.1
2019-01-25T18:48:08.000Z,29.1
2019-01-25T18:49:08.000Z,29.1
2019-01-25T18:51:08.000Z,29.1
2019-01-25T18:53:08.000Z,29.1
2019-01-25T18:54:08.000Z,29.1
2019-01-25T18:55:08.000Z,29.1
2019-01-25T18:57:08.000Z,29.1
2019-01-25T18:58:08.000Z,29.1
2019-01-25T19:00:08.000Z,29.1
2019-01-25T19:02:08.000Z,29.1
2019-01-25T19:03:08.000Z,29.1
2019-01-25T19:05:08.000Z,29.1
2019-01-25T19:06:08.000Z,29.1
2019-01-25T19:08:08.000Z,29.1
2019-01-25T19:10:08.000Z,29.1
2019-01-25T19:12:08.000Z,29.1
2019-01-25T19:13:08.000Z,29.1
2019-01-25T19:15:08.000Z,29
2019-01-25T19:17:08.000Z,29
2019-01-25T19:18:53.000Z,29
2019-01-25T19:20:08.000Z,29
2019-01-25T19:21:53.000Z,29
2019-01-25T19:23:08.000Z,29
2019-01-25T19:25:08.000Z,29
2019-01-25T19:27:08.000Z,29
2019-01-25T19:29:08.000Z,29
2019-01-25T19:31:08.000Z,29
2019-01-25T19:32:08.000Z,29
2019-01-25T19:34:08.000Z,29
2019-01-25T19:36:08.000Z,29
2019-01-25T19:37:08.000Z,29
2019-01-25T19:38:08.000Z,29
2019-01-25T19:40:08.000Z,29
2019-01-25T19:42:08.000Z,29
2019-01-25T19:44:08.000Z,29
2019-01-25T19:46:08.000Z,29
2019-01-25T19:47:08.000Z,29
2019-01-25T19:49:08.000Z,29
2019-01-25T19:50:08.000Z,29
2019-01-25T19:51:08.000Z,29
2019-01-25T19:52:52.000Z,29
2019-01-25T19:54:08.000Z,29
2019-01-25T19:56:08.000Z,29
2019-01-25T19:57:08.000Z,29
2019-01-25T19:59:08.000Z,29
2019-01-25T20:01:08.000Z,29
2019-01-25T20:02:53.000Z,29
2019-01-25T20:04:08.000Z,28.9
2019-01-25T20:06:08.000Z,28.9
2019-01-25T20:07:08.000Z,28.9
2019-01-25T20:09:08.000Z,28.9
2019-01-25T20:10:08.000Z,28.9
2019-01-25T20:12:08.000Z,28.9
2019-01-25T20:13:08.000Z,28.9
2019-01-25T20:15:08.000Z,28.9
2019-01-25T20:17:08.000Z,28.9
2019-01-25T20:18:08.000Z,28.9
2019-01-25T20:20:08.000Z,28.8
2019-01-25T20:22:08.000Z,28.8
2019-01-25T20:23:08.000Z,28.8
2019-01-25T20:24:08.000Z,28.8
2019-01-25T20:25:52.000Z,28.8
2019-01-25T20:27:08.000Z,28.8
2019-01-25T20:28:08.000Z,28.8
2019-01-25T20:30:08.000Z,28.8
2019-01-25T20:31:08.000Z,28.8
2019-01-25T20:33:08.000Z,28.8
2019-01-25T20:35:08.000Z,28.8
2019-01-25T20:36:08.000Z,28.8
2019-01-25T20:37:08.000Z,28.8
2019-01-25T20:38:53.000Z,28.8
2019-01-25T20:40:08.000Z,28.8
2019-01-25T20:42:08.000Z,28.7
2019-01-25T20:43:08.000Z,28.7
2019-01-25T20:45:08.000Z,28.7
2019-01-25T20:47:08.000Z,28.7
2019-01-25T20:49:08.000Z,28.7
2019-01-25T20:50:08.000Z,28.7
2019-01-25T20:52:08.000Z,28.7
2019-01-25T20:54:08.000Z,28.7